sensor_id;sensor_type;location;lat;lon;timestamp;P1;durP1;ratioP1;P2;durP2;ratioP2
4583;SDS011;2304;47.606;12.186;2022-09-09T00:00:15;3.03;;;1.70;;
4583;SDS011;2304;47.606;12.186;2022-09-09T00:05:19;3.70;;;1.50;;
4583;SDS011;2304;47.606;12.186;2022-09-09T00:10:32;3.93;;;1.80;;
4583;SDS011;2304;47.606;12.186;2022-09-09T00:15:38;2.90;;;1.80;;
4583;SDS011;2304;47.606;12.186;2022-09-09T00:20:45;3.07;;;1.80;;
4583;SDS011;2304;47.606;12.186;2022-09-09T00:25:56;2.70;;;1.80;;
4583;SDS011;2304;47.606;12.186;2022-09-09T00:31:08;6.90;;;1.90;;
4583;SDS011;2304;47.606;12.186;2022-09-09T00:36:14;3.03;;;1.50;;
4583;SDS011;2304;47.606;12.186;2022-09-09T00:41:22;2.07;;;1.30;;
4583;SDS011;2304;47.606;12.186;2022-09-09T00:46:38;2.40;;;1.43;;
4583;SDS011;2304;47.606;12.186;2022-09-09T00:51:52;2.30;;;1.53;;
4583;SDS011;2304;47.606;12.186;2022-09-09T00:57:05;2.47;;;1.40;;
4583;SDS011;2304;47.606;12.186;2022-09-09T01:02:17;4.60;;;2.10;;
4583;SDS011;2304;47.606;12.186;2022-09-09T01:07:28;2.23;;;1.40;;
4583;SDS011;2304;47.606;12.186;2022-09-09T01:12:32;2.70;;;1.37;;
4583;SDS011;2304;47.606;12.186;2022-09-09T01:17:48;5.60;;;1.80;;
4583;SDS011;2304;47.606;12.186;2022-09-09T01:23:00;2.03;;;1.40;;
4583;SDS011;2304;47.606;12.186;2022-09-09T01:28:16;6.47;;;2.00;;
4583;SDS011;2304;47.606;12.186;2022-09-09T01:33:22;2.60;;;1.43;;
4583;SDS011;2304;47.606;12.186;2022-09-09T01:38:24;2.90;;;1.30;;
4583;SDS011;2304;47.606;12.186;2022-09-09T01:43:28;6.77;;;1.80;;
4583;SDS011;2304;47.606;12.186;2022-09-09T01:48:30;4.20;;;1.30;;
4583;SDS011;2304;47.606;12.186;2022-09-09T01:53:32;3.33;;;1.20;;
4583;SDS011;2304;47.606;12.186;2022-09-09T01:58:40;2.40;;;1.30;;
4583;SDS011;2304;47.606;12.186;2022-09-09T02:03:52;6.23;;;1.37;;
4583;SDS011;2304;47.606;12.186;2022-09-09T02:08:57;4.03;;;1.60;;
4583;SDS011;2304;47.606;12.186;2022-09-09T02:14:05;2.73;;;1.70;;
4583;SDS011;2304;47.606;12.186;2022-09-09T02:19:11;5.80;;;1.67;;
4583;SDS011;2304;47.606;12.186;2022-09-09T02:24:17;3.73;;;1.60;;
4583;SDS011;2304;47.606;12.186;2022-09-09T02:29:22;4.43;;;1.40;;
4583;SDS011;2304;47.606;12.186;2022-09-09T02:34:26;4.87;;;1.50;;
4583;SDS011;2304;47.606;12.186;2022-09-09T02:39:30;3.97;;;1.60;;
4583;SDS011;2304;47.606;12.186;2022-09-09T02:44:33;4.10;;;1.50;;
4583;SDS011;2304;47.606;12.186;2022-09-09T02:49:38;5.97;;;1.43;;
4583;SDS011;2304;47.606;12.186;2022-09-09T02:54:50;3.27;;;1.60;;
4583;SDS011;2304;47.606;12.186;2022-09-09T03:00:00;5.13;;;1.57;;
4583;SDS011;2304;47.606;12.186;2022-09-09T03:05:03;5.10;;;1.70;;
4583;SDS011;2304;47.606;12.186;2022-09-09T03:10:06;8.63;;;1.63;;
4583;SDS011;2304;47.606;12.186;2022-09-09T03:15:12;8.73;;;1.60;;
4583;SDS011;2304;47.606;12.186;2022-09-09T03:20:14;5.77;;;1.67;;
4583;SDS011;2304;47.606;12.186;2022-09-09T03:25:16;5.87;;;1.93;;
4583;SDS011;2304;47.606;12.186;2022-09-09T03:30:20;5.10;;;1.77;;
4583;SDS011;2304;47.606;12.186;2022-09-09T03:35:22;3.83;;;1.80;;
4583;SDS011;2304;47.606;12.186;2022-09-09T03:40:24;4.97;;;1.70;;
4583;SDS011;2304;47.606;12.186;2022-09-09T03:45:27;3.30;;;1.90;;
4583;SDS011;2304;47.606;12.186;2022-09-09T03:50:30;7.50;;;2.17;;
4583;SDS011;2304;47.606;12.186;2022-09-09T03:55:32;3.10;;;1.63;;
4583;SDS011;2304;47.606;12.186;2022-09-09T04:00:36;5.77;;;2.27;;
4583;SDS011;2304;47.606;12.186;2022-09-09T04:05:43;4.73;;;1.83;;
4583;SDS011;2304;47.606;12.186;2022-09-09T04:10:45;3.80;;;2.37;;
4583;SDS011;2304;47.606;12.186;2022-09-09T04:15:51;3.10;;;1.60;;
4583;SDS011;2304;47.606;12.186;2022-09-09T04:20:54;2.37;;;1.80;;
4583;SDS011;2304;47.606;12.186;2022-09-09T04:25:57;4.17;;;1.97;;
4583;SDS011;2304;47.606;12.186;2022-09-09T04:31:05;6.10;;;1.70;;
4583;SDS011;2304;47.606;12.186;2022-09-09T04:36:07;2.77;;;1.50;;
4583;SDS011;2304;47.606;12.186;2022-09-09T04:41:09;2.87;;;1.67;;
4583;SDS011;2304;47.606;12.186;2022-09-09T04:46:13;1.90;;;1.40;;
4583;SDS011;2304;47.606;12.186;2022-09-09T04:51:17;2.23;;;1.43;;
4583;SDS011;2304;47.606;12.186;2022-09-09T04:56:19;3.63;;;1.40;;
4583;SDS011;2304;47.606;12.186;2022-09-09T05:01:22;2.87;;;1.47;;
4583;SDS011;2304;47.606;12.186;2022-09-09T05:06:25;4.47;;;1.87;;
4583;SDS011;2304;47.606;12.186;2022-09-09T05:11:28;2.30;;;1.57;;
4583;SDS011;2304;47.606;12.186;2022-09-09T05:16:32;3.23;;;1.87;;
4583;SDS011;2304;47.606;12.186;2022-09-09T05:21:34;3.30;;;2.27;;
4583;SDS011;2304;47.606;12.186;2022-09-09T05:26:36;6.60;;;2.67;;
4583;SDS011;2304;47.606;12.186;2022-09-09T05:31:39;7.03;;;2.23;;
4583;SDS011;2304;47.606;12.186;2022-09-09T05:36:41;2.50;;;1.60;;
4583;SDS011;2304;47.606;12.186;2022-09-09T05:41:42;3.63;;;2.00;;
4583;SDS011;2304;47.606;12.186;2022-09-09T05:46:45;3.90;;;2.00;;
4583;SDS011;2304;47.606;12.186;2022-09-09T05:51:47;3.17;;;1.93;;
4583;SDS011;2304;47.606;12.186;2022-09-09T05:56:50;4.23;;;1.70;;
4583;SDS011;2304;47.606;12.186;2022-09-09T06:01:55;5.10;;;2.10;;
4583;SDS011;2304;47.606;12.186;2022-09-09T06:06:56;3.83;;;2.10;;
4583;SDS011;2304;47.606;12.186;2022-09-09T06:11:59;3.53;;;1.90;;
4583;SDS011;2304;47.606;12.186;2022-09-09T06:17:02;3.90;;;1.97;;
4583;SDS011;2304;47.606;12.186;2022-09-09T06:22:04;2.73;;;1.77;;
4583;SDS011;2304;47.606;12.186;2022-09-09T06:27:05;4.37;;;2.07;;
4583;SDS011;2304;47.606;12.186;2022-09-09T06:32:09;6.70;;;2.60;;
4583;SDS011;2304;47.606;12.186;2022-09-09T06:37:10;3.90;;;2.60;;
4583;SDS011;2304;47.606;12.186;2022-09-09T06:42:13;4.40;;;2.33;;
4583;SDS011;2304;47.606;12.186;2022-09-09T06:47:17;4.83;;;2.37;;
4583;SDS011;2304;47.606;12.186;2022-09-09T06:52:18;5.47;;;2.60;;
4583;SDS011;2304;47.606;12.186;2022-09-09T06:57:20;5.30;;;2.33;;
4583;SDS011;2304;47.606;12.186;2022-09-09T07:02:23;4.10;;;2.77;;
4583;SDS011;2304;47.606;12.186;2022-09-09T07:07:25;5.50;;;3.10;;
4583;SDS011;2304;47.606;12.186;2022-09-09T07:12:27;4.50;;;2.60;;
4583;SDS011;2304;47.606;12.186;2022-09-09T07:17:30;4.30;;;2.50;;
4583;SDS011;2304;47.606;12.186;2022-09-09T07:22:32;7.23;;;3.10;;
4583;SDS011;2304;47.606;12.186;2022-09-09T07:27:34;7.00;;;3.67;;
4583;SDS011;2304;47.606;12.186;2022-09-09T07:32:37;4.97;;;3.87;;
4583;SDS011;2304;47.606;12.186;2022-09-09T07:37:39;4.90;;;3.60;;
4583;SDS011;2304;47.606;12.186;2022-09-09T07:42:41;7.87;;;4.30;;
4583;SDS011;2304;47.606;12.186;2022-09-09T07:47:44;9.00;;;4.60;;
4583;SDS011;2304;47.606;12.186;2022-09-09T07:52:48;6.97;;;5.10;;
4583;SDS011;2304;47.606;12.186;2022-09-09T07:57:49;6.97;;;4.70;;
4583;SDS011;2304;47.606;12.186;2022-09-09T08:02:53;14.43;;;6.13;;
4583;SDS011;2304;47.606;12.186;2022-09-09T08:07:55;6.53;;;5.47;;
4583;SDS011;2304;47.606;12.186;2022-09-09T08:12:56;12.33;;;4.93;;
4583;SDS011;2304;47.606;12.186;2022-09-09T08:17:59;8.03;;;5.50;;
4583;SDS011;2304;47.606;12.186;2022-09-09T08:23:02;6.73;;;5.00;;
4583;SDS011;2304;47.606;12.186;2022-09-09T08:28:04;5.30;;;4.67;;
4583;SDS011;2304;47.606;12.186;2022-09-09T08:33:08;7.90;;;4.40;;
4583;SDS011;2304;47.606;12.186;2022-09-09T08:38:10;4.90;;;4.40;;
4583;SDS011;2304;47.606;12.186;2022-09-09T08:43:12;4.70;;;4.27;;
4583;SDS011;2304;47.606;12.186;2022-09-09T08:48:19;5.70;;;3.77;;
4583;SDS011;2304;47.606;12.186;2022-09-09T08:53:34;8.20;;;4.30;;
4583;SDS011;2304;47.606;12.186;2022-09-09T08:58:43;6.07;;;4.30;;
4583;SDS011;2304;47.606;12.186;2022-09-09T09:03:50;6.33;;;4.23;;
4583;SDS011;2304;47.606;12.186;2022-09-09T09:08:59;5.13;;;4.50;;
4583;SDS011;2304;47.606;12.186;2022-09-09T09:14:08;9.13;;;4.00;;
4583;SDS011;2304;47.606;12.186;2022-09-09T09:19:14;4.87;;;3.43;;
4583;SDS011;2304;47.606;12.186;2022-09-09T09:24:18;6.63;;;3.33;;
4583;SDS011;2304;47.606;12.186;2022-09-09T09:29:23;4.73;;;3.47;;
4583;SDS011;2304;47.606;12.186;2022-09-09T09:34:28;5.20;;;3.47;;
4583;SDS011;2304;47.606;12.186;2022-09-09T09:39:31;3.70;;;3.20;;
4583;SDS011;2304;47.606;12.186;2022-09-09T09:44:36;4.13;;;3.70;;
4583;SDS011;2304;47.606;12.186;2022-09-09T09:49:40;5.30;;;3.87;;
4583;SDS011;2304;47.606;12.186;2022-09-09T09:54:53;4.37;;;3.50;;
4583;SDS011;2304;47.606;12.186;2022-09-09T10:00:00;6.00;;;3.93;;
4583;SDS011;2304;47.606;12.186;2022-09-09T10:05:12;6.67;;;3.17;;
4583;SDS011;2304;47.606;12.186;2022-09-09T10:10:19;6.87;;;3.43;;
4583;SDS011;2304;47.606;12.186;2022-09-09T10:15:29;2.90;;;2.57;;
4583;SDS011;2304;47.606;12.186;2022-09-09T10:20:40;3.80;;;3.00;;
4583;SDS011;2304;47.606;12.186;2022-09-09T10:25:59;6.43;;;2.70;;
4583;SDS011;2304;47.606;12.186;2022-09-09T10:31:14;4.70;;;2.90;;
4583;SDS011;2304;47.606;12.186;2022-09-09T10:36:26;5.23;;;2.50;;
4583;SDS011;2304;47.606;12.186;2022-09-09T10:41:35;3.77;;;2.50;;
4583;SDS011;2304;47.606;12.186;2022-09-09T10:46:50;6.33;;;3.10;;
4583;SDS011;2304;47.606;12.186;2022-09-09T10:52:01;3.83;;;2.60;;
4583;SDS011;2304;47.606;12.186;2022-09-09T10:57:08;4.20;;;2.53;;
4583;SDS011;2304;47.606;12.186;2022-09-09T11:02:16;4.13;;;2.97;;
4583;SDS011;2304;47.606;12.186;2022-09-09T11:07:27;5.07;;;2.70;;
4583;SDS011;2304;47.606;12.186;2022-09-09T11:12:35;4.63;;;2.00;;
4583;SDS011;2304;47.606;12.186;2022-09-09T11:17:41;3.30;;;2.60;;
4583;SDS011;2304;47.606;12.186;2022-09-09T11:22:50;3.70;;;2.17;;
4583;SDS011;2304;47.606;12.186;2022-09-09T11:28:15;7.23;;;3.40;;
4583;SDS011;2304;47.606;12.186;2022-09-09T11:33:48;6.10;;;2.67;;
4583;SDS011;2304;47.606;12.186;2022-09-09T11:39:00;3.70;;;2.23;;
4583;SDS011;2304;47.606;12.186;2022-09-09T11:44:11;3.37;;;2.57;;
4583;SDS011;2304;47.606;12.186;2022-09-09T11:49:25;5.70;;;2.60;;
4583;SDS011;2304;47.606;12.186;2022-09-09T11:54:31;6.70;;;3.50;;
4583;SDS011;2304;47.606;12.186;2022-09-09T11:59:35;4.67;;;3.33;;
4583;SDS011;2304;47.606;12.186;2022-09-09T12:04:37;6.03;;;4.10;;
4583;SDS011;2304;47.606;12.186;2022-09-09T12:09:47;8.23;;;4.80;;
4583;SDS011;2304;47.606;12.186;2022-09-09T12:14:55;4.00;;;3.00;;
4583;SDS011;2304;47.606;12.186;2022-09-09T12:20:03;4.97;;;2.60;;
4583;SDS011;2304;47.606;12.186;2022-09-09T12:25:18;5.53;;;2.70;;
4583;SDS011;2304;47.606;12.186;2022-09-09T12:30:28;3.87;;;2.93;;
4583;SDS011;2304;47.606;12.186;2022-09-09T12:35:35;2.83;;;2.10;;
4583;SDS011;2304;47.606;12.186;2022-09-09T12:40:39;3.93;;;2.43;;
4583;SDS011;2304;47.606;12.186;2022-09-09T12:45:41;4.50;;;2.23;;
4583;SDS011;2304;47.606;12.186;2022-09-09T12:50:45;3.53;;;2.30;;
4583;SDS011;2304;47.606;12.186;2022-09-09T12:55:52;2.67;;;1.90;;
4583;SDS011;2304;47.606;12.186;2022-09-09T13:00:57;4.80;;;1.90;;
4583;SDS011;2304;47.606;12.186;2022-09-09T13:06:10;3.20;;;2.00;;
4583;SDS011;2304;47.606;12.186;2022-09-09T13:11:15;4.03;;;1.70;;
4583;SDS011;2304;47.606;12.186;2022-09-09T13:16:21;8.80;;;2.27;;
4583;SDS011;2304;47.606;12.186;2022-09-09T13:21:36;3.50;;;2.00;;
4583;SDS011;2304;47.606;12.186;2022-09-09T13:26:40;3.27;;;1.80;;
4583;SDS011;2304;47.606;12.186;2022-09-09T13:31:42;4.40;;;2.23;;
4583;SDS011;2304;47.606;12.186;2022-09-09T13:36:46;3.10;;;2.03;;
4583;SDS011;2304;47.606;12.186;2022-09-09T13:41:50;4.80;;;2.47;;
4583;SDS011;2304;47.606;12.186;2022-09-09T13:47:03;2.70;;;1.73;;
4583;SDS011;2304;47.606;12.186;2022-09-09T13:52:08;6.00;;;1.90;;
4583;SDS011;2304;47.606;12.186;2022-09-09T13:57:15;2.63;;;1.70;;
4583;SDS011;2304;47.606;12.186;2022-09-09T14:02:18;2.67;;;1.80;;
4583;SDS011;2304;47.606;12.186;2022-09-09T14:07:21;5.10;;;1.50;;
4583;SDS011;2304;47.606;12.186;2022-09-09T14:12:24;3.03;;;1.37;;
4583;SDS011;2304;47.606;12.186;2022-09-09T14:17:26;2.50;;;1.10;;
4583;SDS011;2304;47.606;12.186;2022-09-09T14:22:29;3.53;;;2.00;;
4583;SDS011;2304;47.606;12.186;2022-09-09T14:27:33;3.30;;;2.63;;
4583;SDS011;2304;47.606;12.186;2022-09-09T14:32:34;4.90;;;3.37;;
4583;SDS011;2304;47.606;12.186;2022-09-09T14:37:36;5.07;;;3.00;;
4583;SDS011;2304;47.606;12.186;2022-09-09T14:42:40;4.87;;;2.83;;
4583;SDS011;2304;47.606;12.186;2022-09-09T14:47:42;9.50;;;2.90;;
4583;SDS011;2304;47.606;12.186;2022-09-09T14:52:45;3.57;;;2.13;;
4583;SDS011;2304;47.606;12.186;2022-09-09T14:57:48;4.67;;;3.10;;
4583;SDS011;2304;47.606;12.186;2022-09-09T15:02:51;6.23;;;2.40;;
4583;SDS011;2304;47.606;12.186;2022-09-09T15:07:53;5.83;;;2.70;;
4583;SDS011;2304;47.606;12.186;2022-09-09T15:12:56;5.87;;;2.33;;
4583;SDS011;2304;47.606;12.186;2022-09-09T15:17:58;3.90;;;2.53;;
4583;SDS011;2304;47.606;12.186;2022-09-09T15:23:00;5.67;;;2.70;;
4583;SDS011;2304;47.606;12.186;2022-09-09T15:28:03;4.73;;;2.60;;
4583;SDS011;2304;47.606;12.186;2022-09-09T15:33:07;4.10;;;2.20;;
4583;SDS011;2304;47.606;12.186;2022-09-09T15:38:09;7.13;;;2.43;;
4583;SDS011;2304;47.606;12.186;2022-09-09T15:43:14;4.43;;;2.50;;
4583;SDS011;2304;47.606;12.186;2022-09-09T15:48:16;3.00;;;1.90;;
4583;SDS011;2304;47.606;12.186;2022-09-09T15:53:19;3.97;;;1.93;;
4583;SDS011;2304;47.606;12.186;2022-09-09T15:58:22;2.83;;;1.93;;
4583;SDS011;2304;47.606;12.186;2022-09-09T16:03:24;3.57;;;2.10;;
4583;SDS011;2304;47.606;12.186;2022-09-09T16:08:30;2.93;;;2.17;;
4583;SDS011;2304;47.606;12.186;2022-09-09T16:13:34;4.93;;;2.40;;
4583;SDS011;2304;47.606;12.186;2022-09-09T16:18:37;3.23;;;2.10;;
4583;SDS011;2304;47.606;12.186;2022-09-09T16:23:40;5.30;;;1.90;;
4583;SDS011;2304;47.606;12.186;2022-09-09T16:28:43;5.77;;;1.70;;
4583;SDS011;2304;47.606;12.186;2022-09-09T16:33:46;3.00;;;1.70;;
4583;SDS011;2304;47.606;12.186;2022-09-09T16:38:51;2.87;;;1.60;;
4583;SDS011;2304;47.606;12.186;2022-09-09T16:43:56;2.10;;;1.70;;
4583;SDS011;2304;47.606;12.186;2022-09-09T16:49:02;5.00;;;2.13;;
4583;SDS011;2304;47.606;12.186;2022-09-09T16:54:06;5.20;;;2.17;;
4583;SDS011;2304;47.606;12.186;2022-09-09T16:59:11;3.20;;;2.20;;
4583;SDS011;2304;47.606;12.186;2022-09-09T17:04:14;2.70;;;2.00;;
4583;SDS011;2304;47.606;12.186;2022-09-09T17:09:20;2.90;;;2.03;;
4583;SDS011;2304;47.606;12.186;2022-09-09T17:14:24;3.50;;;1.90;;
4583;SDS011;2304;47.606;12.186;2022-09-09T17:19:26;2.37;;;1.83;;
4583;SDS011;2304;47.606;12.186;2022-09-09T17:24:28;3.30;;;2.30;;
4583;SDS011;2304;47.606;12.186;2022-09-09T17:29:31;3.10;;;2.20;;
4583;SDS011;2304;47.606;12.186;2022-09-09T17:34:35;5.40;;;2.03;;
4583;SDS011;2304;47.606;12.186;2022-09-09T17:39:37;4.00;;;1.80;;
4583;SDS011;2304;47.606;12.186;2022-09-09T17:44:41;6.43;;;1.80;;
4583;SDS011;2304;47.606;12.186;2022-09-09T17:49:43;3.70;;;1.70;;
4583;SDS011;2304;47.606;12.186;2022-09-09T17:54:44;3.60;;;2.00;;
4583;SDS011;2304;47.606;12.186;2022-09-09T17:59:48;3.73;;;1.40;;
4583;SDS011;2304;47.606;12.186;2022-09-09T18:04:50;10.13;;;2.17;;
4583;SDS011;2304;47.606;12.186;2022-09-09T18:09:51;4.63;;;2.50;;
4583;SDS011;2304;47.606;12.186;2022-09-09T18:14:54;2.47;;;1.70;;
4583;SDS011;2304;47.606;12.186;2022-09-09T18:19:56;2.80;;;1.70;;
4583;SDS011;2304;47.606;12.186;2022-09-09T18:24:58;2.57;;;1.43;;
4583;SDS011;2304;47.606;12.186;2022-09-09T18:30:01;2.47;;;1.83;;
4583;SDS011;2304;47.606;12.186;2022-09-09T18:35:04;5.30;;;2.20;;
4583;SDS011;2304;47.606;12.186;2022-09-09T18:40:06;6.00;;;2.30;;
4583;SDS011;2304;47.606;12.186;2022-09-09T18:45:10;3.63;;;2.27;;
4583;SDS011;2304;47.606;12.186;2022-09-09T18:50:11;2.80;;;1.80;;
4583;SDS011;2304;47.606;12.186;2022-09-09T18:55:13;4.40;;;1.57;;
4583;SDS011;2304;47.606;12.186;2022-09-09T19:00:16;2.90;;;1.90;;
4583;SDS011;2304;47.606;12.186;2022-09-09T19:05:18;4.07;;;2.30;;
4583;SDS011;2304;47.606;12.186;2022-09-09T19:10:20;2.23;;;1.50;;
4583;SDS011;2304;47.606;12.186;2022-09-09T19:15:23;4.80;;;2.20;;
4583;SDS011;2304;47.606;12.186;2022-09-09T19:20:25;2.10;;;1.60;;
4583;SDS011;2304;47.606;12.186;2022-09-09T19:25:27;2.67;;;1.87;;
4583;SDS011;2304;47.606;12.186;2022-09-09T19:30:34;4.30;;;2.50;;
4583;SDS011;2304;47.606;12.186;2022-09-09T19:35:36;4.23;;;2.30;;
4583;SDS011;2304;47.606;12.186;2022-09-09T19:40:38;5.07;;;2.63;;
4583;SDS011;2304;47.606;12.186;2022-09-09T19:45:41;13.50;;;2.60;;
4583;SDS011;2304;47.606;12.186;2022-09-09T19:50:43;3.63;;;2.30;;
4583;SDS011;2304;47.606;12.186;2022-09-09T19:55:47;5.23;;;1.73;;
4583;SDS011;2304;47.606;12.186;2022-09-09T20:00:52;2.87;;;1.83;;
4583;SDS011;2304;47.606;12.186;2022-09-09T20:05:54;3.20;;;1.40;;
4583;SDS011;2304;47.606;12.186;2022-09-09T20:10:56;3.60;;;1.80;;
4583;SDS011;2304;47.606;12.186;2022-09-09T20:16:00;5.63;;;1.70;;
4583;SDS011;2304;47.606;12.186;2022-09-09T20:21:04;3.93;;;1.77;;
4583;SDS011;2304;47.606;12.186;2022-09-09T20:26:09;3.00;;;1.47;;
4583;SDS011;2304;47.606;12.186;2022-09-09T20:31:15;4.50;;;2.07;;
4583;SDS011;2304;47.606;12.186;2022-09-09T20:36:19;3.60;;;2.70;;
4583;SDS011;2304;47.606;12.186;2022-09-09T20:41:23;7.23;;;2.53;;
4583;SDS011;2304;47.606;12.186;2022-09-09T20:46:28;3.53;;;3.00;;
4583;SDS011;2304;47.606;12.186;2022-09-09T20:51:32;5.50;;;2.50;;
4583;SDS011;2304;47.606;12.186;2022-09-09T20:56:37;3.60;;;1.67;;
4583;SDS011;2304;47.606;12.186;2022-09-09T21:01:42;3.27;;;1.80;;
4583;SDS011;2304;47.606;12.186;2022-09-09T21:06:46;4.80;;;1.93;;
4583;SDS011;2304;47.606;12.186;2022-09-09T21:11:50;2.77;;;1.80;;
4583;SDS011;2304;47.606;12.186;2022-09-09T21:16:53;3.20;;;1.90;;
4583;SDS011;2304;47.606;12.186;2022-09-09T21:21:55;5.33;;;1.90;;
4583;SDS011;2304;47.606;12.186;2022-09-09T21:26:57;5.83;;;2.17;;
4583;SDS011;2304;47.606;12.186;2022-09-09T21:32:01;6.13;;;2.40;;
4583;SDS011;2304;47.606;12.186;2022-09-09T21:37:03;4.10;;;1.80;;
4583;SDS011;2304;47.606;12.186;2022-09-09T21:42:05;2.63;;;1.93;;
4583;SDS011;2304;47.606;12.186;2022-09-09T21:47:09;4.47;;;2.30;;
4583;SDS011;2304;47.606;12.186;2022-09-09T21:52:11;6.37;;;2.10;;
4583;SDS011;2304;47.606;12.186;2022-09-09T21:57:14;4.20;;;2.27;;
4583;SDS011;2304;47.606;12.186;2022-09-09T22:02:17;6.93;;;2.47;;
4583;SDS011;2304;47.606;12.186;2022-09-09T22:07:20;6.37;;;2.60;;
4583;SDS011;2304;47.606;12.186;2022-09-09T22:12:22;3.03;;;2.20;;
4583;SDS011;2304;47.606;12.186;2022-09-09T22:17:25;3.80;;;2.73;;
4583;SDS011;2304;47.606;12.186;2022-09-09T22:22:27;8.53;;;2.37;;
4583;SDS011;2304;47.606;12.186;2022-09-09T22:27:29;6.90;;;2.30;;
4583;SDS011;2304;47.606;12.186;2022-09-09T22:32:32;4.50;;;2.10;;
4583;SDS011;2304;47.606;12.186;2022-09-09T22:37:34;2.30;;;2.00;;
4583;SDS011;2304;47.606;12.186;2022-09-09T22:42:36;3.90;;;2.40;;
4583;SDS011;2304;47.606;12.186;2022-09-09T22:47:39;3.80;;;2.10;;
4583;SDS011;2304;47.606;12.186;2022-09-09T22:52:42;5.30;;;2.27;;
4583;SDS011;2304;47.606;12.186;2022-09-09T22:57:44;5.33;;;2.47;;
4583;SDS011;2304;47.606;12.186;2022-09-09T23:02:47;4.13;;;1.90;;
4583;SDS011;2304;47.606;12.186;2022-09-09T23:07:49;3.43;;;1.90;;
4583;SDS011;2304;47.606;12.186;2022-09-09T23:12:52;3.10;;;1.40;;
4583;SDS011;2304;47.606;12.186;2022-09-09T23:17:56;5.53;;;1.60;;
4583;SDS011;2304;47.606;12.186;2022-09-09T23:22:58;3.77;;;1.20;;
4583;SDS011;2304;47.606;12.186;2022-09-09T23:28:00;2.10;;;1.40;;
4583;SDS011;2304;47.606;12.186;2022-09-09T23:33:04;2.80;;;1.40;;
4583;SDS011;2304;47.606;12.186;2022-09-09T23:38:06;2.43;;;1.20;;
4583;SDS011;2304;47.606;12.186;2022-09-09T23:43:07;1.70;;;0.93;;
4583;SDS011;2304;47.606;12.186;2022-09-09T23:48:11;2.00;;;1.30;;
4583;SDS011;2304;47.606;12.186;2022-09-09T23:53:14;1.87;;;1.30;;
4583;SDS011;2304;47.606;12.186;2022-09-09T23:58:16;3.70;;;1.40;;
